Portageville, NY (14536)

6:41 AM EDT on August 31, 2014 (GMT -0400)
Southview Farms | Change Station
CLOSE
Current Station
Personal Weather Station
Location: Castile, NY
Elevation: 1417 ft
Nearby Weather Stations

Elev 1417 ft 42.64 °N, 78.01 °W | Updated 1 minute ago

Overcast
Overcast
68.6 °F
Feels Like 68.6 °F
N
0.0
Wind Variable Wind from SW

Today
High -- | Low -- °F
--% Chance of Precip.
Yesterday
High -- | Low -- °F
Precip. -- in
6:36 AM 7:48 PM
Waxing Crescent, 29% visible
Pressure 30.02 in
Visibility 10.0 miles
Clouds Mostly Cloudy 10000 ft
Dew Point 67 °F
Humidity 94%
Rainfall 0.20 in
Snow Depth Not available.
UV 0 out of 12
Pollen 10.40 out of 12
PM2.5 Moderate
Flu Activity Not available.
METAR KDSV 310954Z AUTO 12007KT 10SM -RA BKN100 22/21 A3001 RMK AO2 SLP164 P0002 T02170206

More Conditions Fewer Conditions

Pressure 30.02 in
Visibility 10.0 miles
Clouds Mostly Cloudy 10000 ft
Dew Point 67 °F
Humidity 94%
Rainfall 0.20 in
Snow Depth Not available.
UV 0 out of 12
Pollen 10.40 out of 12
PM2.5 Moderate
Flu Activity Not available.
METAR KDSV 310954Z AUTO 12007KT 10SM -RA BKN100 22/21 A3001 RMK AO2 SLP164 P0002 T02170206

More Conditions Fewer Conditions

10-Day Weather Forecast

Almanac

Astronomy

Aug. 31, 2014 Rise Set
Actual Time 6:36 AM EDT 7:48 PM EDT
Civil Twilight 6:07 AM EDT 8:17 PM EDT
Nautical Twilight 5:32 AM EDT 8:51 PM EDT
Astronomical Twilight 4:55 AM EDT 9:28 PM EDT
Moon 12:28 PM EDT 10:53 PM EDT
Length of Visible Light 14h 10m
Length of Day
13h 12m
Tomorrow will be 2m 45s shorter.
Waxing Crescent, 29% of the Moon is Illuminated
Today
Waxing Crescent
Sep 2
First Quarter
Sep 8
Full
Sep 15
Last Quarter
Sep 24
New

Today's Extremes

State Highs State Lows

Community

WunderPhotos

Upload Photos

1,748,837 photos uploaded!

Nearby

Air Quality

  Air Quality AQ Index Pollutant
Yesterday Moderate
PM2.5
Yesterday Good
OZONE
Current Moderate
PM2.5
Sunday Good
PM2.5
Sunday Good
OZONE
Monday Moderate
PM2.5
Monday Moderate
OZONE
Tuesday Good
PM2.5
Tuesday Good
OZONE

Snow Depth

Station Depth Elevation
No new snow has been reported.

Earthquake Activity

City Distance Mag. Time & Date
No recent earthquake activity has been reported nearby.
Minimum magnitude displayed is 2.5.

Coastal Water Temperatures

Place Temperature
No Stations Reporting

Nearby Weather Stations